Nisshunmaru — JD2245 — position and weather

sailwx.info

Track history (hours):
 
Tides and Currents Weather Stations Pressure Air Temp Water Temp Dewpoint Dewpoint Depression Visibility Wind Speed Wind Dir Waves Ship Positions

Nisshunmaru

Last reported at 2017-Dec-17 10:27 UTC. Time now 2017-Dec-18 13:00 UTC.
Position N 41°53' E 141°13'.

Length 105 m; draft 6 m.

Type: Ship (hazmat cat B). MMSI: 431501863.

Date/timePositionNaut miles runAvg speedWind from/ knotsBaromVisibWave heightAir tempDewpointWater temp
2017-Dec-17 10:27N 41°53' E 141°13'613.5
2017-Dec-17 10:00N 41°48' E 141°17'613.2
2017-Dec-17 09:30N 41°42' E 141°22'713.5
2017-Dec-17 08:57N 41°36' E 141°26'612.7
2017-Dec-17 08:30N 41°30' E 141°30'612.9
2017-Dec-17 08:00N 41°24' E 141°33'1313.3
2017-Dec-17 07:03N 41°12' E 141°36'212.9
2017-Dec-17 06:56N 41°10' E 141°36'14 0.3
2017-Dec-15 12:02N 41°25' E 141°34'114.7
2017-Dec-15 11:59N 41°25' E 141°33'715.5
2017-Dec-15 11:30N 41°30' E 141°25'816.2
2017-Dec-15 11:00N 41°32' E 141°15'816.3
2017-Dec-15 10:31N 41°34' E 141°05'816.6
2017-Dec-15 10:01N 41°36' E 140°54'815.5
2017-Dec-15 09:31N 41°30' E 140°48'714.7
2017-Dec-15 09:00N 41°23' E 140°45'713.9
2017-Dec-15 08:30N 41°16' E 140°44'714.7
2017-Dec-15 08:00N 41°08' E 140°43'714.5
2017-Dec-15 07:30N 41°01' E 140°44'814.7
2017-Dec-15 06:57N 40°53' E 140°45'3 6.8
2017-Dec-15 06:30N 40°50' E 140°44'28 2.3
2017-Dec-14 18:29N 41°18' E 140°44'714.4
2017-Dec-14 18:00N 41°24' E 140°47'714.0
2017-Dec-14 17:30N 41°31' E 140°49'612.2
2017-Dec-14 17:00N 41°36' E 140°53'510.4
2017-Dec-14 16:30N 41°38' E 140°59'511.0
2017-Dec-14 16:00N 41°42' E 141°04'  
2017-Dec-11 22:50N 41°52' E 141°15'513.4
2017-Dec-11 22:28N 41°48' E 141°18'612.6
2017-Dec-11 21:59N 41°43' E 141°22'712.2
2017-Dec-11 21:24N 41°36' E 141°27'611.6
2017-Dec-11 20:56N 41°31' E 141°30'612.6
2017-Dec-11 20:29N 41°26' E 141°33'39313.4
2017-Dec-10 15:15N 34°59' E 140°10'616.7
2017-Dec-10 14:53N 34°56' E 140°04'1015.8
2017-Dec-10 14:13N 34°52' E 139°52'315.2
2017-Dec-10 14:00N 34°52' E 139°48'715.0
2017-Dec-10 13:30N 34°58' E 139°43'713.6
2017-Dec-10 13:00N 35°05' E 139°44'713.4
2017-Dec-10 12:30N 35°11' E 139°46'612.0
2017-Dec-10 12:00N 35°17' E 139°45'613.0
2017-Dec-10 11:31N 35°23' E 139°41'3 4.9
2017-Dec-10 10:58N 35°25' E 139°38'0 0.0
2017-Dec-10 10:25N 35°25' E 139°38'0 0.0
2017-Dec-10 09:58N 35°25' E 139°38'0 0.0
2017-Dec-10 09:28N 35°25' E 139°38'0 0.0
2017-Dec-10 08:58N 35°25' E 139°38'0 0.0
2017-Dec-10 08:28N 35°25' E 139°38'0 0.0
2017-Dec-10 07:55N 35°25' E 139°38'0 0.0
2017-Dec-10 07:28N 35°25' E 139°38'0 0.0
2017-Dec-10 06:58N 35°25' E 139°38'0 0.0
2017-Dec-10 06:28N 35°25' E 139°38'0 0.0
2017-Dec-10 05:58N 35°25' E 139°38'0 0.0
2017-Dec-10 05:28N 35°25' E 139°38'0 0.0
2017-Dec-10 04:58N 35°25' E 139°38'0 0.0
2017-Dec-10 04:25N 35°25' E 139°38'0 0.0
2017-Dec-10 03:58N 35°25' E 139°38'0 0.0
2017-Dec-10 03:25N 35°25' E 139°38'0 0.0
2017-Dec-10 02:58N 35°25' E 139°38'0 0.0
2017-Dec-10 02:28N 35°25' E 139°38'0 0.0
2017-Dec-10 01:58N 35°25' E 139°38'0 0.0
2017-Dec-10 01:28N 35°25' E 139°38'0 0.0
2017-Dec-10 00:58N 35°25' E 139°38'0 0.0
2017-Dec-10 00:28N 35°25' E 139°38'0 0.0
2017-Dec-09 23:58N 35°25' E 139°38'0 0.0
2017-Dec-09 23:28N 35°25' E 139°38'1 1.4
2017-Dec-09 23:01N 35°24' E 139°39'3 6.8
2017-Dec-09 22:30N 35°25' E 139°43'713.4
2017-Dec-09 22:01N 35°29' E 139°50'714.2
2017-Dec-09 21:30N 35°33' E 139°56'712.6
2017-Dec-09 20:55N 35°40' E 139°59'0 0.1
2017-Dec-09 18:01N 35°41' E 139°59'0 0.0
2017-Dec-09 17:01N 35°41' E 139°59'0 0.0
2017-Dec-09 16:18N 35°41' E 139°59'0 0.0
2017-Dec-09 16:01N 35°41' E 139°59'0 0.0
2017-Dec-09 13:31N 35°41' E 139°59'0 0.0
2017-Dec-09 11:25N 35°41' E 139°59'0 0.0
2017-Dec-09 07:13N 35°41' E 139°59'0 0.0
2017-Dec-09 03:01N 35°41' E 139°59'0 0.0
2017-Dec-09 02:31N 35°41' E 139°59'0 0.0
2017-Dec-09 01:55N 35°41' E 139°59'0 0.0
2017-Dec-08 23:52N 35°41' E 139°59'2 3.7
2017-Dec-08 23:14N 35°38' E 139°59'210.4
2017-Dec-08 23:01N 35°36' E 139°59'1 1.8
2017-Dec-08 22:28N 35°35' E 139°58'0 0.0
2017-Dec-08 21:58N 35°35' E 139°58'0 0.0
2017-Dec-08 20:58N 35°35' E 139°58'0 0.0
2017-Dec-08 20:22N 35°35' E 139°58'0 0.2
2017-Dec-08 19:48N 35°35' E 139°58'1 4.3
2017-Dec-08 19:30N 35°34' E 139°57'714.0
2017-Dec-08 19:00N 35°29' E 139°52'713.7
2017-Dec-08 18:30N 35°24' E 139°46'612.1
2017-Dec-08 18:00N 35°18' E 139°45'612.2
2017-Dec-08 17:30N 35°12' E 139°47'713.9
2017-Dec-08 17:01N 35°05' E 139°45'713.5
2017-Dec-08 16:31N 34°59' E 139°43'612.2
2017-Dec-08 16:00N 34°53' E 139°46'1113.3
2017-Dec-08 15:13N 34°53' E 139°59'315.6
2017-Dec-08 14:59N 34°55' E 140°03'814.3
2017-Dec-08 14:24N 34°59' E 140°12'  
Track history (hours):
 
Tides and Currents Weather Stations Pressure Air Temp Water Temp Dewpoint Dewpoint Depression Visibility Wind Speed Wind Dir Waves Ship Positions

Nisshunmaru

Last reported at 2017-Dec-17 10:27 UTC. Time now 2017-Dec-18 13:00 UTC.
Position N 41°53' E 141°13'.

Length 105 m; draft 6 m.

Type: Ship (hazmat cat B). MMSI: 431501863.

Date/timePositionNaut miles runAvg speedWind from/ knotsBaromVisibWave heightAir tempDewpointWater temp
2017-Dec-17 10:27N 41°53' E 141°13'613.5
2017-Dec-17 10:00N 41°48' E 141°17'613.2
2017-Dec-17 09:30N 41°42' E 141°22'713.5
2017-Dec-17 08:57N 41°36' E 141°26'612.7
2017-Dec-17 08:30N 41°30' E 141°30'612.9
2017-Dec-17 08:00N 41°24' E 141°33'1313.3
2017-Dec-17 07:03N 41°12' E 141°36'212.9
2017-Dec-17 06:56N 41°10' E 141°36'14 0.3
2017-Dec-15 12:02N 41°25' E 141°34'114.7
2017-Dec-15 11:59N 41°25' E 141°33'715.5
2017-Dec-15 11:30N 41°30' E 141°25'816.2
2017-Dec-15 11:00N 41°32' E 141°15'816.3
2017-Dec-15 10:31N 41°34' E 141°05'816.6
2017-Dec-15 10:01N 41°36' E 140°54'815.5
2017-Dec-15 09:31N 41°30' E 140°48'714.7
2017-Dec-15 09:00N 41°23' E 140°45'713.9
2017-Dec-15 08:30N 41°16' E 140°44'714.7
2017-Dec-15 08:00N 41°08' E 140°43'714.5
2017-Dec-15 07:30N 41°01' E 140°44'814.7
2017-Dec-15 06:57N 40°53' E 140°45'3 6.8
2017-Dec-15 06:30N 40°50' E 140°44'28 2.3
2017-Dec-14 18:29N 41°18' E 140°44'714.4
2017-Dec-14 18:00N 41°24' E 140°47'714.0
2017-Dec-14 17:30N 41°31' E 140°49'612.2
2017-Dec-14 17:00N 41°36' E 140°53'510.4
2017-Dec-14 16:30N 41°38' E 140°59'511.0
2017-Dec-14 16:00N 41°42' E 141°04'  
2017-Dec-11 22:50N 41°52' E 141°15'513.4
2017-Dec-11 22:28N 41°48' E 141°18'612.6
2017-Dec-11 21:59N 41°43' E 141°22'712.2
2017-Dec-11 21:24N 41°36' E 141°27'611.6
2017-Dec-11 20:56N 41°31' E 141°30'612.6
2017-Dec-11 20:29N 41°26' E 141°33'39313.4
2017-Dec-10 15:15N 34°59' E 140°10'616.7
2017-Dec-10 14:53N 34°56' E 140°04'1015.8
2017-Dec-10 14:13N 34°52' E 139°52'315.2
2017-Dec-10 14:00N 34°52' E 139°48'715.0
2017-Dec-10 13:30N 34°58' E 139°43'713.6
2017-Dec-10 13:00N 35°05' E 139°44'713.4
2017-Dec-10 12:30N 35°11' E 139°46'612.0
2017-Dec-10 12:00N 35°17' E 139°45'613.0
2017-Dec-10 11:31N 35°23' E 139°41'3 4.9
2017-Dec-10 10:58N 35°25' E 139°38'0 0.0
2017-Dec-10 10:25N 35°25' E 139°38'0 0.0
2017-Dec-10 09:58N 35°25' E 139°38'0 0.0
2017-Dec-10 09:28N 35°25' E 139°38'0 0.0
2017-Dec-10 08:58N 35°25' E 139°38'0 0.0
2017-Dec-10 08:28N 35°25' E 139°38'0 0.0
2017-Dec-10 07:55N 35°25' E 139°38'0 0.0
2017-Dec-10 07:28N 35°25' E 139°38'0 0.0
2017-Dec-10 06:58N 35°25' E 139°38'0 0.0
2017-Dec-10 06:28N 35°25' E 139°38'0 0.0
2017-Dec-10 05:58N 35°25' E 139°38'0 0.0
2017-Dec-10 05:28N 35°25' E 139°38'0 0.0
2017-Dec-10 04:58N 35°25' E 139°38'0 0.0
2017-Dec-10 04:25N 35°25' E 139°38'0 0.0
2017-Dec-10 03:58N 35°25' E 139°38'0 0.0
2017-Dec-10 03:25N 35°25' E 139°38'0 0.0
2017-Dec-10 02:58N 35°25' E 139°38'0 0.0
2017-Dec-10 02:28N 35°25' E 139°38'0 0.0
2017-Dec-10 01:58N 35°25' E 139°38'0 0.0
2017-Dec-10 01:28N 35°25' E 139°38'0 0.0
2017-Dec-10 00:58N 35°25' E 139°38'0 0.0
2017-Dec-10 00:28N 35°25' E 139°38'0 0.0
2017-Dec-09 23:58N 35°25' E 139°38'0 0.0
2017-Dec-09 23:28N 35°25' E 139°38'1 1.4
2017-Dec-09 23:01N 35°24' E 139°39'3 6.8
2017-Dec-09 22:30N 35°25' E 139°43'713.4
2017-Dec-09 22:01N 35°29' E 139°50'714.2
2017-Dec-09 21:30N 35°33' E 139°56'712.6
2017-Dec-09 20:55N 35°40' E 139°59'0 0.1
2017-Dec-09 18:01N 35°41' E 139°59'0 0.0
2017-Dec-09 17:01N 35°41' E 139°59'0 0.0
2017-Dec-09 16:18N 35°41' E 139°59'0 0.0
2017-Dec-09 16:01N 35°41' E 139°59'0 0.0
2017-Dec-09 13:31N 35°41' E 139°59'0 0.0
2017-Dec-09 11:25N 35°41' E 139°59'0 0.0
2017-Dec-09 07:13N 35°41' E 139°59'0 0.0
2017-Dec-09 03:01N 35°41' E 139°59'0 0.0
2017-Dec-09 02:31N 35°41' E 139°59'0 0.0
2017-Dec-09 01:55N 35°41' E 139°59'0 0.0
2017-Dec-08 23:52N 35°41' E 139°59'2 3.7
2017-Dec-08 23:14N 35°38' E 139°59'210.4
2017-Dec-08 23:01N 35°36' E 139°59'1 1.8
2017-Dec-08 22:28N 35°35' E 139°58'0 0.0
2017-Dec-08 21:58N 35°35' E 139°58'0 0.0
2017-Dec-08 20:58N 35°35' E 139°58'0 0.0
2017-Dec-08 20:22N 35°35' E 139°58'0 0.2
2017-Dec-08 19:48N 35°35' E 139°58'1 4.3
2017-Dec-08 19:30N 35°34' E 139°57'714.0
2017-Dec-08 19:00N 35°29' E 139°52'713.7
2017-Dec-08 18:30N 35°24' E 139°46'612.1
2017-Dec-08 18:00N 35°18' E 139°45'612.2
2017-Dec-08 17:30N 35°12' E 139°47'713.9
2017-Dec-08 17:01N 35°05' E 139°45'713.5
2017-Dec-08 16:31N 34°59' E 139°43'612.2
2017-Dec-08 16:00N 34°53' E 139°46'1113.3
2017-Dec-08 15:13N 34°53' E 139°59'315.6
2017-Dec-08 14:59N 34°55' E 140°03'814.3
2017-Dec-08 14:24N 34°59' E 140°12'  

Dump ship's entire track history